sensor_id;sensor_type;location;lat;lon;timestamp;pressure;altitude;pressure_sealevel;temperature;humidity
41102;BME280;26845;50.190;19.178;2023-01-27T00:00:13;98813.08;;;1.12;83.18
41102;BME280;26845;50.190;19.178;2023-01-27T00:02:42;98814.66;;;1.11;83.07
41102;BME280;26845;50.190;19.178;2023-01-27T00:05:10;98811.73;;;1.09;83.18
41102;BME280;26845;50.190;19.178;2023-01-27T00:07:36;98809.13;;;1.07;83.16
41102;BME280;26845;50.190;19.178;2023-01-27T00:10:03;98812.02;;;1.07;83.32
41102;BME280;26845;50.190;19.178;2023-01-27T00:12:29;98807.15;;;1.06;83.36
41102;BME280;26845;50.190;19.178;2023-01-27T00:15:15;98808.28;;;1.05;83.19
41102;BME280;26845;50.190;19.178;2023-01-27T00:17:41;98806.89;;;1.04;83.21
41102;BME280;26845;50.190;19.178;2023-01-27T00:20:09;98806.29;;;1.04;83.28
41102;BME280;26845;50.190;19.178;2023-01-27T00:22:35;98810.61;;;1.03;83.24
41102;BME280;26845;50.190;19.178;2023-01-27T00:25:20;98812.11;;;1.02;83.38
41102;BME280;26845;50.190;19.178;2023-01-27T00:27:46;98810.86;;;1.02;83.24
41102;BME280;26845;50.190;19.178;2023-01-27T00:30:12;98811.48;;;0.99;83.27
41102;BME280;26845;50.190;19.178;2023-01-27T00:32:38;98814.21;;;0.99;83.28
41102;BME280;26845;50.190;19.178;2023-01-27T00:35:23;98823.79;;;0.99;83.40
41102;BME280;26845;50.190;19.178;2023-01-27T00:37:51;98824.01;;;0.97;83.32
41102;BME280;26845;50.190;19.178;2023-01-27T00:40:16;98824.28;;;0.98;83.35
41102;BME280;26845;50.190;19.178;2023-01-27T00:42:43;98822.06;;;1.00;83.44
41102;BME280;26845;50.190;19.178;2023-01-27T00:45:09;98823.30;;;1.06;83.55
41102;BME280;26845;50.190;19.178;2023-01-27T00:47:54;98822.50;;;1.08;83.48
41102;BME280;26845;50.190;19.178;2023-01-27T00:50:21;98822.58;;;1.07;83.40
41102;BME280;26845;50.190;19.178;2023-01-27T00:52:46;98824.47;;;1.04;83.21
41102;BME280;26845;50.190;19.178;2023-01-27T00:55:13;98823.59;;;1.04;83.18
41102;BME280;26845;50.190;19.178;2023-01-27T00:57:41;98820.46;;;1.03;83.23
41102;BME280;26845;50.190;19.178;2023-01-27T01:00:08;98818.10;;;1.03;83.20
41102;BME280;26845;50.190;19.178;2023-01-27T01:02:35;98813.86;;;1.01;83.22
41102;BME280;26845;50.190;19.178;2023-01-27T01:05:01;98811.05;;;0.99;83.28
41102;BME280;26845;50.190;19.178;2023-01-27T01:07:27;98811.84;;;0.98;83.17
41102;BME280;26845;50.190;19.178;2023-01-27T01:09:53;98811.95;;;0.97;83.40
41102;BME280;26845;50.190;19.178;2023-01-27T01:12:19;98806.32;;;0.97;83.27
41102;BME280;26845;50.190;19.178;2023-01-27T01:14:45;98803.90;;;1.01;83.46
41102;BME280;26845;50.190;19.178;2023-01-27T01:17:12;98803.88;;;1.04;83.50
41102;BME280;26845;50.190;19.178;2023-01-27T01:19:38;98803.45;;;1.04;83.20
41102;BME280;26845;50.190;19.178;2023-01-27T01:22:04;98802.41;;;1.04;83.08
41102;BME280;26845;50.190;19.178;2023-01-27T01:24:30;98805.14;;;1.04;83.05
41102;BME280;26845;50.190;19.178;2023-01-27T01:26:56;98805.46;;;1.03;82.97
41102;BME280;26845;50.190;19.178;2023-01-27T01:29:23;98802.08;;;1.04;83.05
41102;BME280;26845;50.190;19.178;2023-01-27T01:31:50;98802.52;;;1.04;83.16
41102;BME280;26845;50.190;19.178;2023-01-27T01:34:16;98804.11;;;1.05;83.10
41102;BME280;26845;50.190;19.178;2023-01-27T01:36:43;98803.79;;;1.06;83.17
41102;BME280;26845;50.190;19.178;2023-01-27T01:39:09;98805.52;;;1.07;83.34
41102;BME280;26845;50.190;19.178;2023-01-27T01:41:36;98805.94;;;1.06;83.17
41102;BME280;26845;50.190;19.178;2023-01-27T01:44:28;98802.45;;;0.95;82.73
41102;BME280;26845;50.190;19.178;2023-01-27T01:46:54;98802.84;;;0.87;83.18
41102;BME280;26845;50.190;19.178;2023-01-27T01:49:24;98801.79;;;0.89;83.23
41102;BME280;26845;50.190;19.178;2023-01-27T01:51:57;98806.05;;;0.93;83.54
41102;BME280;26845;50.190;19.178;2023-01-27T01:54:29;98806.10;;;0.97;83.47
41102;BME280;26845;50.190;19.178;2023-01-27T01:57:11;98807.83;;;0.99;83.51
41102;BME280;26845;50.190;19.178;2023-01-27T01:59:43;98809.00;;;1.02;83.53
41102;BME280;26845;50.190;19.178;2023-01-27T02:02:14;98801.34;;;1.02;83.38
41102;BME280;26845;50.190;19.178;2023-01-27T02:04:46;98808.23;;;1.02;83.40
41102;BME280;26845;50.190;19.178;2023-01-27T02:09:47;98798.66;;;1.03;83.50
41102;BME280;26845;50.190;19.178;2023-01-27T02:12:13;98798.58;;;1.04;83.55
41102;BME280;26845;50.190;19.178;2023-01-27T02:14:40;98799.09;;;1.05;83.62
41102;BME280;26845;50.190;19.178;2023-01-27T02:17:09;98796.33;;;1.04;83.62
41102;BME280;26845;50.190;19.178;2023-01-27T02:22:58;98795.96;;;1.01;83.23
41102;BME280;26845;50.190;19.178;2023-01-27T02:28:06;98800.91;;;0.74;82.96
41102;BME280;26845;50.190;19.178;2023-01-27T02:30:33;98797.92;;;0.54;82.87
41102;BME280;26845;50.190;19.178;2023-01-27T02:32:59;98795.18;;;0.40;83.10
41102;BME280;26845;50.190;19.178;2023-01-27T02:35:35;98799.14;;;0.22;83.06
41102;BME280;26845;50.190;19.178;2023-01-27T02:38:05;98806.64;;;0.06;83.18
41102;BME280;26845;50.190;19.178;2023-01-27T02:40:32;98804.06;;;-0.02;83.45
41102;BME280;26845;50.190;19.178;2023-01-27T02:42:59;98805.58;;;-0.09;83.74
41102;BME280;26845;50.190;19.178;2023-01-27T02:45:28;98807.02;;;-0.14;83.79
41102;BME280;26845;50.190;19.178;2023-01-27T02:47:53;98809.91;;;-0.14;83.62
41102;BME280;26845;50.190;19.178;2023-01-27T02:50:19;98806.87;;;-0.09;83.75
41102;BME280;26845;50.190;19.178;2023-01-27T02:52:46;98805.50;;;-0.06;84.05
41102;BME280;26845;50.190;19.178;2023-01-27T02:55:13;98804.12;;;-0.04;83.88
41102;BME280;26845;50.190;19.178;2023-01-27T02:57:39;98804.00;;;-0.08;83.73
41102;BME280;26845;50.190;19.178;2023-01-27T03:00:07;98806.09;;;-0.11;84.03
41102;BME280;26845;50.190;19.178;2023-01-27T03:02:37;98803.42;;;-0.13;84.03
41102;BME280;26845;50.190;19.178;2023-01-27T03:05:04;98802.68;;;-0.15;84.16
41102;BME280;26845;50.190;19.178;2023-01-27T03:07:31;98803.77;;;-0.16;84.18
41102;BME280;26845;50.190;19.178;2023-01-27T03:09:57;98805.89;;;-0.16;84.36
41102;BME280;26845;50.190;19.178;2023-01-27T03:12:27;98809.95;;;-0.14;84.26
41102;BME280;26845;50.190;19.178;2023-01-27T03:14:53;98805.18;;;-0.06;84.53
41102;BME280;26845;50.190;19.178;2023-01-27T03:17:38;98807.73;;;-0.02;84.38
41102;BME280;26845;50.190;19.178;2023-01-27T03:20:22;98807.55;;;0.05;84.62
41102;BME280;26845;50.190;19.178;2023-01-27T03:22:49;98812.60;;;0.10;84.42
41102;BME280;26845;50.190;19.178;2023-01-27T03:25:15;98809.02;;;0.15;84.27
41102;BME280;26845;50.190;19.178;2023-01-27T03:27:41;98808.73;;;0.21;84.62
41102;BME280;26845;50.190;19.178;2023-01-27T03:30:08;98810.34;;;0.19;84.19
41102;BME280;26845;50.190;19.178;2023-01-27T03:32:36;98812.86;;;0.16;84.13
41102;BME280;26845;50.190;19.178;2023-01-27T03:35:02;98812.88;;;0.13;84.35
41102;BME280;26845;50.190;19.178;2023-01-27T03:37:30;98810.02;;;0.15;84.47
41102;BME280;26845;50.190;19.178;2023-01-27T03:40:15;98810.08;;;0.15;84.57
41102;BME280;26845;50.190;19.178;2023-01-27T03:43:00;98806.13;;;0.21;84.57
41102;BME280;26845;50.190;19.178;2023-01-27T03:45:49;98806.39;;;0.29;84.59
41102;BME280;26845;50.190;19.178;2023-01-27T03:48:35;98799.30;;;0.33;84.77
41102;BME280;26845;50.190;19.178;2023-01-27T03:51:02;98804.23;;;0.39;84.88
41102;BME280;26845;50.190;19.178;2023-01-27T03:53:28;98801.39;;;0.45;84.83
41102;BME280;26845;50.190;19.178;2023-01-27T03:55:54;98801.54;;;0.48;84.63
41102;BME280;26845;50.190;19.178;2023-01-27T03:58:32;98801.90;;;0.50;84.76
41102;BME280;26845;50.190;19.178;2023-01-27T04:01:01;98801.71;;;0.52;84.50
41102;BME280;26845;50.190;19.178;2023-01-27T04:03:29;98801.50;;;0.45;84.26
41102;BME280;26845;50.190;19.178;2023-01-27T04:06:20;98804.20;;;0.39;84.54
41102;BME280;26845;50.190;19.178;2023-01-27T04:09:05;98799.23;;;0.43;84.69
41102;BME280;26845;50.190;19.178;2023-01-27T04:11:31;98799.09;;;0.49;85.08
41102;BME280;26845;50.190;19.178;2023-01-27T04:14:16;98799.56;;;0.55;84.90
41102;BME280;26845;50.190;19.178;2023-01-27T04:16:43;98794.66;;;0.60;84.83
41102;BME280;26845;50.190;19.178;2023-01-27T04:19:10;98796.66;;;0.63;84.74
41102;BME280;26845;50.190;19.178;2023-01-27T04:21:38;98797.52;;;0.64;84.61
41102;BME280;26845;50.190;19.178;2023-01-27T04:24:05;98797.62;;;0.65;84.77
41102;BME280;26845;50.190;19.178;2023-01-27T04:26:45;98795.42;;;0.68;84.76
41102;BME280;26845;50.190;19.178;2023-01-27T04:29:12;98792.59;;;0.72;84.82
41102;BME280;26845;50.190;19.178;2023-01-27T04:31:39;98798.78;;;0.70;84.45
41102;BME280;26845;50.190;19.178;2023-01-27T04:34:06;98798.73;;;0.64;84.37
41102;BME280;26845;50.190;19.178;2023-01-27T04:36:31;98798.55;;;0.64;84.49
41102;BME280;26845;50.190;19.178;2023-01-27T04:38:58;98797.78;;;0.60;84.20
41102;BME280;26845;50.190;19.178;2023-01-27T04:41:24;98796.45;;;0.56;84.36
41102;BME280;26845;50.190;19.178;2023-01-27T04:43:51;98796.29;;;0.55;84.50
41102;BME280;26845;50.190;19.178;2023-01-27T04:46:17;98795.48;;;0.58;84.52
41102;BME280;26845;50.190;19.178;2023-01-27T04:48:43;98795.06;;;0.54;84.52
41102;BME280;26845;50.190;19.178;2023-01-27T04:51:09;98792.45;;;0.48;84.40
41102;BME280;26845;50.190;19.178;2023-01-27T04:53:36;98794.42;;;0.48;84.57
41102;BME280;26845;50.190;19.178;2023-01-27T04:56:05;98795.68;;;0.51;84.65
41102;BME280;26845;50.190;19.178;2023-01-27T04:58:32;98794.92;;;0.55;84.67
41102;BME280;26845;50.190;19.178;2023-01-27T05:00:58;98796.38;;;0.58;84.87
41102;BME280;26845;50.190;19.178;2023-01-27T05:03:24;98800.48;;;0.58;84.75
41102;BME280;26845;50.190;19.178;2023-01-27T05:05:51;98802.66;;;0.57;84.29
41102;BME280;26845;50.190;19.178;2023-01-27T05:08:16;98806.33;;;0.54;84.41
41102;BME280;26845;50.190;19.178;2023-01-27T05:10:43;98810.84;;;0.56;84.50
41102;BME280;26845;50.190;19.178;2023-01-27T05:13:11;98810.84;;;0.60;84.74
41102;BME280;26845;50.190;19.178;2023-01-27T05:15:37;98812.92;;;0.64;84.79
41102;BME280;26845;50.190;19.178;2023-01-27T05:18:05;98813.23;;;0.62;84.37
41102;BME280;26845;50.190;19.178;2023-01-27T05:20:30;98814.39;;;0.62;84.63
41102;BME280;26845;50.190;19.178;2023-01-27T05:22:57;98815.88;;;0.63;84.29
41102;BME280;26845;50.190;19.178;2023-01-27T05:25:44;98822.23;;;0.56;84.05
41102;BME280;26845;50.190;19.178;2023-01-27T05:28:10;98821.80;;;0.50;83.83
41102;BME280;26845;50.190;19.178;2023-01-27T05:30:37;98819.13;;;0.47;84.20
41102;BME280;26845;50.190;19.178;2023-01-27T05:33:03;98821.67;;;0.45;83.91
41102;BME280;26845;50.190;19.178;2023-01-27T05:35:32;98822.09;;;0.32;83.47
41102;BME280;26845;50.190;19.178;2023-01-27T05:37:58;98820.33;;;0.18;83.36
41102;BME280;26845;50.190;19.178;2023-01-27T05:40:24;98824.27;;;0.08;83.27
41102;BME280;26845;50.190;19.178;2023-01-27T05:42:51;98825.29;;;-0.03;83.30
41102;BME280;26845;50.190;19.178;2023-01-27T05:45:18;98829.80;;;-0.13;83.35
41102;BME280;26845;50.190;19.178;2023-01-27T05:47:49;98830.55;;;-0.18;83.13
41102;BME280;26845;50.190;19.178;2023-01-27T05:50:17;98834.52;;;-0.28;83.16
41102;BME280;26845;50.190;19.178;2023-01-27T05:52:44;98832.23;;;-0.31;83.17
41102;BME280;26845;50.190;19.178;2023-01-27T05:55:10;98829.15;;;-0.41;82.95
41102;BME280;26845;50.190;19.178;2023-01-27T05:57:36;98829.61;;;-0.51;82.90
41102;BME280;26845;50.190;19.178;2023-01-27T06:00:02;98830.80;;;-0.55;83.37
41102;BME280;26845;50.190;19.178;2023-01-27T06:02:28;98832.95;;;-0.57;83.13
41102;BME280;26845;50.190;19.178;2023-01-27T06:04:54;98835.98;;;-0.60;83.21
41102;BME280;26845;50.190;19.178;2023-01-27T06:07:20;98839.85;;;-0.61;83.22
41102;BME280;26845;50.190;19.178;2023-01-27T06:09:48;98839.40;;;-0.68;83.18
41102;BME280;26845;50.190;19.178;2023-01-27T06:12:14;98848.01;;;-0.72;83.31
41102;BME280;26845;50.190;19.178;2023-01-27T06:14:40;98853.40;;;-0.69;83.47
41102;BME280;26845;50.190;19.178;2023-01-27T06:17:07;98854.31;;;-0.66;83.27
41102;BME280;26845;50.190;19.178;2023-01-27T06:19:33;98852.42;;;-0.66;83.51
41102;BME280;26845;50.190;19.178;2023-01-27T06:21:59;98853.78;;;-0.66;83.34
41102;BME280;26845;50.190;19.178;2023-01-27T06:24:26;98852.94;;;-0.71;82.97
41102;BME280;26845;50.190;19.178;2023-01-27T06:26:54;98855.11;;;-0.76;83.05
41102;BME280;26845;50.190;19.178;2023-01-27T06:29:20;98855.80;;;-0.80;83.27
41102;BME280;26845;50.190;19.178;2023-01-27T06:31:47;98864.94;;;-0.82;83.06
41102;BME280;26845;50.190;19.178;2023-01-27T06:34:13;98864.80;;;-0.83;83.04
41102;BME280;26845;50.190;19.178;2023-01-27T06:36:40;98866.92;;;-0.83;82.98
41102;BME280;26845;50.190;19.178;2023-01-27T06:39:05;98864.19;;;-0.84;83.00
41102;BME280;26845;50.190;19.178;2023-01-27T06:41:32;98862.95;;;-0.80;83.30
41102;BME280;26845;50.190;19.178;2023-01-27T06:43:58;98866.31;;;-0.78;82.89
41102;BME280;26845;50.190;19.178;2023-01-27T06:46:24;98867.70;;;-0.75;83.14
41102;BME280;26845;50.190;19.178;2023-01-27T06:48:50;98871.21;;;-0.68;83.47
41102;BME280;26845;50.190;19.178;2023-01-27T06:51:16;98871.20;;;-0.60;83.23
41102;BME280;26845;50.190;19.178;2023-01-27T06:53:43;98875.63;;;-0.55;83.16
41102;BME280;26845;50.190;19.178;2023-01-27T06:56:09;98879.48;;;-0.49;83.19
41102;BME280;26845;50.190;19.178;2023-01-27T06:58:35;98876.98;;;-0.44;83.16
41102;BME280;26845;50.190;19.178;2023-01-27T07:01:03;98877.45;;;-0.42;82.81
41102;BME280;26845;50.190;19.178;2023-01-27T07:03:30;98876.44;;;-0.38;82.99
41102;BME280;26845;50.190;19.178;2023-01-27T07:05:56;98883.50;;;-0.32;83.16
41102;BME280;26845;50.190;19.178;2023-01-27T07:08:23;98882.64;;;-0.26;83.30
41102;BME280;26845;50.190;19.178;2023-01-27T07:10:49;98884.50;;;-0.23;82.86
41102;BME280;26845;50.190;19.178;2023-01-27T07:13:15;98884.75;;;-0.24;82.77
41102;BME280;26845;50.190;19.178;2023-01-27T07:15:44;98887.73;;;-0.31;82.52
41102;BME280;26845;50.190;19.178;2023-01-27T07:18:10;98886.50;;;-0.35;82.63
41102;BME280;26845;50.190;19.178;2023-01-27T07:20:38;98888.08;;;-0.36;82.41
41102;BME280;26845;50.190;19.178;2023-01-27T07:23:04;98888.95;;;-0.38;82.43
41102;BME280;26845;50.190;19.178;2023-01-27T07:25:33;98891.11;;;-0.37;82.71
41102;BME280;26845;50.190;19.178;2023-01-27T07:28:00;98887.30;;;-0.34;82.60
41102;BME280;26845;50.190;19.178;2023-01-27T07:30:27;98891.14;;;-0.32;82.82
41102;BME280;26845;50.190;19.178;2023-01-27T07:32:53;98886.23;;;-0.29;82.56
41102;BME280;26845;50.190;19.178;2023-01-27T07:35:23;98888.17;;;-0.28;82.69
41102;BME280;26845;50.190;19.178;2023-01-27T07:37:49;98889.51;;;-0.33;82.18
41102;BME280;26845;50.190;19.178;2023-01-27T07:40:15;98890.19;;;-0.39;81.76
41102;BME280;26845;50.190;19.178;2023-01-27T07:42:42;98890.05;;;-0.46;81.85
41102;BME280;26845;50.190;19.178;2023-01-27T07:45:09;98884.52;;;-0.56;81.74
41102;BME280;26845;50.190;19.178;2023-01-27T07:47:35;98882.65;;;-0.61;82.02
41102;BME280;26845;50.190;19.178;2023-01-27T07:50:01;98887.73;;;-0.61;82.06
41102;BME280;26845;50.190;19.178;2023-01-27T07:52:27;98886.62;;;-0.63;82.04
41102;BME280;26845;50.190;19.178;2023-01-27T07:54:54;98889.81;;;-0.61;82.16
41102;BME280;26845;50.190;19.178;2023-01-27T07:57:20;98889.78;;;-0.63;81.87
41102;BME280;26845;50.190;19.178;2023-01-27T07:59:46;98891.68;;;-0.65;81.84
41102;BME280;26845;50.190;19.178;2023-01-27T08:02:12;98889.14;;;-0.70;81.76
41102;BME280;26845;50.190;19.178;2023-01-27T08:04:38;98893.89;;;-0.77;81.55
41102;BME280;26845;50.190;19.178;2023-01-27T08:07:05;98894.92;;;-0.78;82.14
41102;BME280;26845;50.190;19.178;2023-01-27T08:09:31;98892.20;;;-0.77;81.97
41102;BME280;26845;50.190;19.178;2023-01-27T08:11:57;98889.69;;;-0.81;81.55
41102;BME280;26845;50.190;19.178;2023-01-27T08:14:23;98892.89;;;-0.79;82.10
41102;BME280;26845;50.190;19.178;2023-01-27T08:16:49;98896.06;;;-0.79;81.99
41102;BME280;26845;50.190;19.178;2023-01-27T08:19:16;98897.22;;;-0.80;81.93
41102;BME280;26845;50.190;19.178;2023-01-27T08:21:42;98903.56;;;-0.80;81.88
41102;BME280;26845;50.190;19.178;2023-01-27T08:24:09;98902.14;;;-0.80;82.19
41102;BME280;26845;50.190;19.178;2023-01-27T08:26:35;98902.81;;;-0.76;82.15
41102;BME280;26845;50.190;19.178;2023-01-27T08:29:01;98907.05;;;-0.72;82.14
41102;BME280;26845;50.190;19.178;2023-01-27T08:31:27;98906.67;;;-0.70;82.14
41102;BME280;26845;50.190;19.178;2023-01-27T08:33:54;98911.27;;;-0.64;82.30
41102;BME280;26845;50.190;19.178;2023-01-27T08:36:21;98905.80;;;-0.59;82.38
41102;BME280;26845;50.190;19.178;2023-01-27T08:38:49;98907.75;;;-0.55;82.29
41102;BME280;26845;50.190;19.178;2023-01-27T08:41:23;98908.19;;;-0.49;82.49
41102;BME280;26845;50.190;19.178;2023-01-27T08:43:50;98910.36;;;-0.44;82.42
41102;BME280;26845;50.190;19.178;2023-01-27T08:46:16;98908.88;;;-0.38;82.07
41102;BME280;26845;50.190;19.178;2023-01-27T08:48:43;98907.69;;;-0.32;82.21
41102;BME280;26845;50.190;19.178;2023-01-27T08:51:11;98908.95;;;-0.30;82.22
41102;BME280;26845;50.190;19.178;2023-01-27T08:53:38;98906.05;;;-0.27;82.15
41102;BME280;26845;50.190;19.178;2023-01-27T08:56:06;98904.63;;;-0.25;81.94
41102;BME280;26845;50.190;19.178;2023-01-27T08:58:33;98910.73;;;-0.23;81.87
41102;BME280;26845;50.190;19.178;2023-01-27T09:01:00;98914.02;;;-0.25;81.77
41102;BME280;26845;50.190;19.178;2023-01-27T09:03:30;98916.70;;;-0.21;82.01
41102;BME280;26845;50.190;19.178;2023-01-27T09:05:56;98917.03;;;-0.19;81.97
41102;BME280;26845;50.190;19.178;2023-01-27T09:08:25;98917.91;;;-0.17;81.78
41102;BME280;26845;50.190;19.178;2023-01-27T09:10:51;98918.27;;;-0.16;81.84
41102;BME280;26845;50.190;19.178;2023-01-27T09:13:18;98925.42;;;-0.13;82.02
41102;BME280;26845;50.190;19.178;2023-01-27T09:15:47;98929.11;;;-0.09;81.76
41102;BME280;26845;50.190;19.178;2023-01-27T09:18:15;98924.61;;;-0.08;81.40
41102;BME280;26845;50.190;19.178;2023-01-27T09:20:41;98926.91;;;-0.13;81.16
41102;BME280;26845;50.190;19.178;2023-01-27T09:23:07;98930.77;;;-0.15;81.28
41102;BME280;26845;50.190;19.178;2023-01-27T09:25:33;98931.55;;;-0.16;81.00
41102;BME280;26845;50.190;19.178;2023-01-27T09:28:00;98934.13;;;-0.19;80.94
41102;BME280;26845;50.190;19.178;2023-01-27T09:30:27;98937.04;;;-0.24;81.27
41102;BME280;26845;50.190;19.178;2023-01-27T09:32:57;98934.13;;;-0.22;81.33
41102;BME280;26845;50.190;19.178;2023-01-27T09:35:27;98933.54;;;-0.27;81.13
41102;BME280;26845;50.190;19.178;2023-01-27T09:37:57;98937.81;;;-0.32;81.10
41102;BME280;26845;50.190;19.178;2023-01-27T09:40:38;98938.56;;;-0.32;81.24
41102;BME280;26845;50.190;19.178;2023-01-27T09:48:58;98934.97;;;-0.23;81.07
41102;BME280;26845;50.190;19.178;2023-01-27T09:51:53;98942.44;;;-0.24;81.03
41102;BME280;26845;50.190;19.178;2023-01-27T09:57:20;98934.51;;;-0.16;81.45
41102;BME280;26845;50.190;19.178;2023-01-27T10:03:11;98938.17;;;-0.13;81.23
41102;BME280;26845;50.190;19.178;2023-01-27T10:05:53;98939.24;;;-0.16;81.02
41102;BME280;26845;50.190;19.178;2023-01-27T10:08:29;98936.07;;;-0.15;81.21
41102;BME280;26845;50.190;19.178;2023-01-27T10:19:17;98929.52;;;-0.16;80.94
41102;BME280;26845;50.190;19.178;2023-01-27T10:24:42;98927.75;;;-0.14;80.92
41102;BME280;26845;50.190;19.178;2023-01-27T10:27:22;98926.38;;;-0.15;80.79
41102;BME280;26845;50.190;19.178;2023-01-27T10:30:07;98927.86;;;-0.12;80.65
41102;BME280;26845;50.190;19.178;2023-01-27T10:32:44;98928.21;;;-0.14;80.59
41102;BME280;26845;50.190;19.178;2023-01-27T10:35:25;98922.13;;;-0.12;80.63
41102;BME280;26845;50.190;19.178;2023-01-27T10:37:57;98922.85;;;-0.14;80.52
41102;BME280;26845;50.190;19.178;2023-01-27T10:40:33;98923.91;;;-0.13;80.62
41102;BME280;26845;50.190;19.178;2023-01-27T10:43:21;98923.96;;;-0.10;80.53
41102;BME280;26845;50.190;19.178;2023-01-27T10:51:12;98921.39;;;-0.04;80.53
41102;BME280;26845;50.190;19.178;2023-01-27T10:56:43;98919.69;;;-0.08;80.12
41102;BME280;26845;50.190;19.178;2023-01-27T10:59:22;98920.90;;;0.01;80.48
41102;BME280;26845;50.190;19.178;2023-01-27T11:02:03;98924.30;;;0.11;80.55
41102;BME280;26845;50.190;19.178;2023-01-27T11:04:38;98923.88;;;0.25;80.67
41102;BME280;26845;50.190;19.178;2023-01-27T11:07:14;98922.27;;;0.36;80.54
41102;BME280;26845;50.190;19.178;2023-01-27T11:10:07;98919.02;;;0.41;80.27
41102;BME280;26845;50.190;19.178;2023-01-27T11:12:44;98921.56;;;0.50;80.10
41102;BME280;26845;50.190;19.178;2023-01-27T11:17:51;98922.56;;;0.47;79.65
41102;BME280;26845;50.190;19.178;2023-01-27T11:37:47;98920.29;;;0.32;78.87
41102;BME280;26845;50.190;19.178;2023-01-27T11:40:15;98924.08;;;0.30;78.66
41102;BME280;26845;50.190;19.178;2023-01-27T11:42:42;98916.71;;;0.28;79.04
41102;BME280;26845;50.190;19.178;2023-01-27T11:45:16;98912.27;;;0.29;79.13
41102;BME280;26845;50.190;19.178;2023-01-27T11:47:46;98919.11;;;0.33;79.28
41102;BME280;26845;50.190;19.178;2023-01-27T11:50:18;98919.17;;;0.40;79.17
41102;BME280;26845;50.190;19.178;2023-01-27T11:55:42;98917.29;;;0.52;78.86
41102;BME280;26845;50.190;19.178;2023-01-27T11:58:35;98915.45;;;0.50;78.67
41102;BME280;26845;50.190;19.178;2023-01-27T12:01:16;98913.20;;;0.53;78.79
41102;BME280;26845;50.190;19.178;2023-01-27T12:04:00;98914.69;;;0.54;78.71
41102;BME280;26845;50.190;19.178;2023-01-27T12:06:39;98913.76;;;0.57;78.91
41102;BME280;26845;50.190;19.178;2023-01-27T12:09:39;98914.08;;;0.63;79.08
41102;BME280;26845;50.190;19.178;2023-01-27T12:12:12;98912.53;;;0.62;78.42
41102;BME280;26845;50.190;19.178;2023-01-27T12:14:57;98912.02;;;0.59;78.58
41102;BME280;26845;50.190;19.178;2023-01-27T12:17:32;98911.80;;;0.61;78.76
41102;BME280;26845;50.190;19.178;2023-01-27T12:23:23;98908.70;;;0.62;78.54
41102;BME280;26845;50.190;19.178;2023-01-27T12:28:34;98908.99;;;0.64;78.37
41102;BME280;26845;50.190;19.178;2023-01-27T12:31:05;98910.58;;;0.63;78.23
41102;BME280;26845;50.190;19.178;2023-01-27T12:33:33;98914.48;;;0.64;78.28
41102;BME280;26845;50.190;19.178;2023-01-27T12:36:14;98916.23;;;0.61;78.00
41102;BME280;26845;50.190;19.178;2023-01-27T12:38:52;98916.89;;;0.58;78.06
41102;BME280;26845;50.190;19.178;2023-01-27T12:41:26;98913.80;;;0.57;77.97
41102;BME280;26845;50.190;19.178;2023-01-27T12:44:14;98910.26;;;0.60;78.40
41102;BME280;26845;50.190;19.178;2023-01-27T12:46:55;98911.43;;;0.66;78.36
41102;BME280;26845;50.190;19.178;2023-01-27T12:49:30;98911.88;;;0.66;78.09
41102;BME280;26845;50.190;19.178;2023-01-27T12:52:01;98911.27;;;0.59;78.05
41102;BME280;26845;50.190;19.178;2023-01-27T12:54:30;98905.91;;;0.55;78.23
41102;BME280;26845;50.190;19.178;2023-01-27T12:57:03;98904.21;;;0.55;78.25
41102;BME280;26845;50.190;19.178;2023-01-27T12:59:30;98903.11;;;0.57;78.13
41102;BME280;26845;50.190;19.178;2023-01-27T13:01:58;98904.88;;;0.56;78.00
41102;BME280;26845;50.190;19.178;2023-01-27T13:04:25;98906.70;;;0.53;77.85
41102;BME280;26845;50.190;19.178;2023-01-27T13:09:34;98906.93;;;0.51;77.81
41102;BME280;26845;50.190;19.178;2023-01-27T13:12:09;98909.17;;;0.48;78.04
41102;BME280;26845;50.190;19.178;2023-01-27T13:14:40;98905.34;;;0.51;77.95
41102;BME280;26845;50.190;19.178;2023-01-27T13:17:36;98911.33;;;0.49;77.86
41102;BME280;26845;50.190;19.178;2023-01-27T13:20:07;98909.77;;;0.45;77.73
41102;BME280;26845;50.190;19.178;2023-01-27T13:26:03;98909.04;;;0.39;77.65
41102;BME280;26845;50.190;19.178;2023-01-27T13:28:50;98910.23;;;0.35;77.64
41102;BME280;26845;50.190;19.178;2023-01-27T13:34:10;98916.80;;;0.36;77.56
41102;BME280;26845;50.190;19.178;2023-01-27T13:37:03;98908.92;;;0.33;76.88
41102;BME280;26845;50.190;19.178;2023-01-27T13:42:45;98915.39;;;0.30;77.45
41102;BME280;26845;50.190;19.178;2023-01-27T13:45:17;98912.97;;;0.33;77.68
41102;BME280;26845;50.190;19.178;2023-01-27T13:51:10;98917.64;;;0.34;77.39
41102;BME280;26845;50.190;19.178;2023-01-27T13:53:35;98921.96;;;0.35;77.35
41102;BME280;26845;50.190;19.178;2023-01-27T13:59:31;98919.63;;;0.35;77.27
41102;BME280;26845;50.190;19.178;2023-01-27T14:08:47;98927.85;;;0.27;77.37
41102;BME280;26845;50.190;19.178;2023-01-27T14:16:55;98935.02;;;0.30;77.31
41102;BME280;26845;50.190;19.178;2023-01-27T14:19:34;98938.75;;;0.28;77.07
41102;BME280;26845;50.190;19.178;2023-01-27T14:22:11;98944.13;;;0.26;77.05
41102;BME280;26845;50.190;19.178;2023-01-27T14:24:45;98943.05;;;0.23;77.14
41102;BME280;26845;50.190;19.178;2023-01-27T14:27:42;98939.88;;;0.20;77.26
41102;BME280;26845;50.190;19.178;2023-01-27T14:30:23;98944.75;;;0.17;77.43
41102;BME280;26845;50.190;19.178;2023-01-27T14:33:05;98947.17;;;0.18;77.38
41102;BME280;26845;50.190;19.178;2023-01-27T14:38:38;98953.64;;;0.08;77.16
41102;BME280;26845;50.190;19.178;2023-01-27T14:52:08;98969.04;;;0.07;77.25
41102;BME280;26845;50.190;19.178;2023-01-27T14:55:00;98972.77;;;0.07;77.07
41102;BME280;26845;50.190;19.178;2023-01-27T15:05:56;98981.70;;;-0.01;76.98
41102;BME280;26845;50.190;19.178;2023-01-27T15:08:46;98990.52;;;-0.02;77.20
41102;BME280;26845;50.190;19.178;2023-01-27T15:11:21;98988.65;;;-0.05;76.86
41102;BME280;26845;50.190;19.178;2023-01-27T15:16:28;98986.33;;;-0.07;77.38